Time;durP1;ratioP1;P1;durP2;ratioP2;P2;SDS_P1;SDS_P2;PMS_P1;PMS_P2;Temp;Humidity;BMP_temperature;BMP_pressure;BME280_temperature;BME280_humidity;BME280_pressure;Samples;Min_cycle;Max_cycle;Signal;HPM_P1;HPM_P2
2022/01/11 00:01:52;;;;;;;40.47;22.50;;;2.10;99.90;;;;;;6147821;23;20581;-80
2022/01/11 00:04:20;;;;;;;37.43;20.67;;;2.10;99.90;;;;;;6148658;23;20174;-81
2022/01/11 00:06:50;;;;;;;39.83;21.37;;;2.10;99.90;;;;;;6147615;23;20229;-81
2022/01/11 00:09:32;;;;;;;38.80;20.20;;;2.10;99.90;;;;;;6147792;23;20266;-80
2022/01/11 00:12:00;;;;;;;38.73;21.17;;;2.10;99.90;;;;;;6148519;23;20175;-79
2022/01/11 00:14:28;;;;;;;43.27;21.90;;;2.00;99.90;;;;;;6148170;23;20186;-81
2022/01/11 00:16:55;;;;;;;44.33;21.70;;;2.00;99.90;;;;;;6148726;23;20674;-79
2022/01/11 00:19:22;;;;;;;44.27;22.97;;;2.00;99.90;;;;;;6146909;23;20176;-78
2022/01/11 00:21:49;;;;;;;41.60;22.33;;;2.00;99.90;;;;;;6147883;23;20167;-82
2022/01/11 00:24:29;;;;;;;43.37;21.67;;;2.00;99.90;;;;;;6148744;23;20816;-79
2022/01/11 00:26:57;;;;;;;42.27;21.40;;;2.00;99.90;;;;;;6149151;23;20492;-81
2022/01/11 00:29:24;;;;;;;40.80;22.53;;;2.00;99.90;;;;;;6146287;23;20470;-82
2022/01/11 00:31:55;;;;;;;39.93;22.67;;;2.00;99.90;;;;;;6147947;23;20255;-81
2022/01/11 00:34:23;;;;;;;41.30;21.47;;;2.00;99.90;;;;;;6148852;23;20965;-78
2022/01/11 00:36:50;;;;;;;38.40;21.63;;;2.00;99.90;;;;;;6148045;23;20176;-79
2022/01/11 00:39:17;;;;;;;48.17;22.37;;;2.00;99.90;;;;;;6147792;23;20202;-78
2022/01/11 00:41:45;;;;;;;43.17;21.60;;;2.00;99.90;;;;;;6146299;23;20866;-78
2022/01/11 00:44:12;;;;;;;41.33;21.50;;;2.00;99.90;;;;;;6147685;23;20171;-77
2022/01/11 00:46:40;;;;;;;45.23;23.80;;;2.00;99.90;;;;;;6147218;23;20203;-82
2022/01/11 00:49:09;;;;;;;47.30;24.40;;;2.00;99.90;;;;;;6145914;23;20172;-82
2022/01/11 00:51:36;;;;;;;46.77;23.53;;;2.00;99.90;;;;;;6147045;23;20175;-82
2022/01/11 00:54:03;;;;;;;53.60;23.87;;;2.00;99.90;;;;;;6147175;23;20188;-82
2022/01/11 00:56:30;;;;;;;52.87;24.50;;;2.00;99.90;;;;;;6146307;23;20191;-80
2022/01/11 00:58:57;;;;;;;48.27;23.37;;;2.00;99.90;;;;;;6146908;23;20179;-83
2022/01/11 01:01:24;;;;;;;47.30;22.70;;;2.00;99.90;;;;;;6147160;23;20175;-78
2022/01/11 01:03:51;;;;;;;44.80;23.20;;;1.90;99.90;;;;;;6145700;23;20238;-78
2022/01/11 01:06:19;;;;;;;55.17;24.57;;;1.90;99.90;;;;;;6147263;23;20176;-78
2022/01/11 01:08:46;;;;;;;49.47;24.53;;;1.90;99.90;;;;;;6147859;23;20175;-79
2022/01/11 01:11:13;;;;;;;46.20;23.70;;;1.90;99.90;;;;;;6146529;23;20167;-81
2022/01/11 01:13:40;;;;;;;51.23;24.40;;;1.90;99.90;;;;;;6147287;23;20250;-81
2022/01/11 01:16:08;;;;;;;45.87;23.93;;;1.90;99.90;;;;;;6146533;23;20182;-78
2022/01/11 01:18:36;;;;;;;47.83;23.73;;;1.90;99.90;;;;;;6145584;23;20178;-80
2022/01/11 01:21:03;;;;;;;49.17;24.43;;;1.90;99.90;;;;;;6146888;23;20190;-80
2022/01/11 01:23:31;;;;;;;49.17;24.03;;;1.90;99.90;;;;;;6145776;23;20498;-81
2022/01/11 01:25:59;;;;;;;49.13;23.67;;;1.90;99.90;;;;;;6145995;23;20231;-80
2022/01/11 01:28:26;;;;;;;55.17;25.13;;;1.90;99.90;;;;;;6145636;23;20225;-79
2022/01/11 01:30:55;;;;;;;48.97;24.57;;;2.00;99.90;;;;;;6145027;23;20274;-78
2022/01/11 01:33:22;;;;;;;53.27;25.27;;;2.00;99.90;;;;;;6147249;23;20210;-79
2022/01/11 01:35:54;;;;;;;55.30;26.57;;;2.00;99.90;;;;;;6150538;23;20707;-82
2022/01/11 01:38:24;;;;;;;55.67;26.13;;;2.00;99.90;;;;;;6148679;23;20163;-80
2022/01/11 01:40:58;;;;;;;59.33;26.73;;;1.90;99.90;;;;;;6150401;23;20183;-81
2022/01/11 01:43:25;;;;;;;54.67;26.70;;;1.90;99.90;;;;;;6151228;23;20210;-79
2022/01/11 01:45:53;;;;;;;61.10;27.60;;;2.00;99.90;;;;;;6148991;23;20172;-80
2022/01/11 01:48:20;;;;;;;58.37;26.37;;;2.00;99.90;;;;;;6150108;23;20206;-81
2022/01/11 01:50:49;;;;;;;58.43;26.73;;;2.00;99.90;;;;;;6126918;23;20200;-83
2022/01/11 01:53:17;;;;;;;52.13;24.37;;;2.00;99.90;;;;;;6119987;23;20601;-80
2022/01/11 01:55:45;;;;;;;57.80;27.70;;;2.00;99.90;;;;;;6119195;23;20180;-77
2022/01/11 01:58:15;;;;;;;59.83;26.70;;;2.00;99.90;;;;;;6119795;23;20195;-79
2022/01/11 02:00:50;;;;;;;52.07;25.77;;;2.00;99.90;;;;;;6118506;23;20184;-79
2022/01/11 02:03:18;;;;;;;59.87;25.97;;;2.00;99.90;;;;;;6119333;23;20168;-81
2022/01/11 02:05:46;;;;;;;63.40;29.03;;;2.00;99.90;;;;;;6119310;23;20192;-80
2022/01/11 02:08:14;;;;;;;58.70;27.00;;;2.00;99.90;;;;;;6117596;23;20426;-78
2022/01/11 02:10:40;;;;;;;60.93;27.73;;;2.00;99.90;;;;;;6119751;23;20411;-80
2022/01/11 02:13:08;;;;;;;65.70;28.40;;;2.00;99.90;;;;;;6118072;23;20173;-81
2022/01/11 02:15:37;;;;;;;55.60;26.20;;;2.00;99.90;;;;;;6120185;23;20180;-82
2022/01/11 02:18:08;;;;;;;65.47;28.70;;;2.10;99.90;;;;;;6118840;23;20442;-83
2022/01/11 02:20:37;;;;;;;55.90;27.03;;;2.10;99.90;;;;;;6119178;23;20204;-80
2022/01/11 02:23:04;;;;;;;57.47;27.77;;;2.10;99.90;;;;;;6118392;23;20172;-80
2022/01/11 02:25:31;;;;;;;58.63;27.83;;;2.10;99.90;;;;;;6119384;23;20601;-82
2022/01/11 02:27:58;;;;;;;62.23;27.93;;;2.10;99.90;;;;;;6119142;23;20196;-82
2022/01/11 02:30:25;;;;;;;66.97;29.33;;;2.10;99.90;;;;;;6118394;23;20172;-80
2022/01/11 02:32:52;;;;;;;62.60;28.73;;;2.10;99.90;;;;;;6119335;23;20180;-81
2022/01/11 02:35:19;;;;;;;55.33;28.33;;;2.00;99.90;;;;;;6118941;23;20168;-78
2022/01/11 02:37:47;;;;;;;62.60;28.03;;;2.00;99.90;;;;;;6120381;23;20172;-78
2022/01/11 02:40:16;;;;;;;64.53;29.43;;;2.00;99.90;;;;;;6120461;23;20416;-80
2022/01/11 02:42:42;;;;;;;63.63;28.07;;;2.00;99.90;;;;;;6117042;23;20197;-80
2022/01/11 02:45:14;;;;;;;68.70;29.20;;;2.00;99.90;;;;;;6164848;23;20209;-82
2022/01/11 02:47:41;;;;;;;69.73;30.10;;;2.00;99.90;;;;;;6176161;23;20195;-80
2022/01/11 02:50:09;;;;;;;63.30;28.27;;;2.00;99.90;;;;;;6179377;23;20190;-80
2022/01/11 02:52:36;;;;;;;62.03;28.47;;;2.00;99.90;;;;;;6178432;23;20178;-79
2022/01/11 02:55:09;;;;;;;63.53;31.07;;;2.00;99.90;;;;;;6175805;23;20171;-77
2022/01/11 02:57:36;;;;;;;62.07;29.17;;;2.10;99.90;;;;;;6176820;23;20226;-77
2022/01/11 03:00:06;;;;;;;65.70;28.33;;;2.10;99.90;;;;;;6176427;23;20171;-78
2022/01/11 03:02:32;;;;;;;63.60;29.60;;;2.00;99.90;;;;;;6175838;23;20481;-80
2022/01/11 03:04:59;;;;;;;62.17;29.13;;;2.10;99.90;;;;;;6175968;23;20358;-79
2022/01/11 03:07:26;;;;;;;71.53;30.27;;;2.10;99.90;;;;;;6176961;23;20201;-78
2022/01/11 03:10:02;;;;;;;74.00;30.93;;;2.10;99.90;;;;;;6176438;23;20185;-78
2022/01/11 03:12:30;;;;;;;67.63;31.37;;;2.10;99.90;;;;;;6176618;23;20285;-77
2022/01/11 03:14:58;;;;;;;75.40;32.23;;;2.10;99.90;;;;;;6176910;23;20183;-82
2022/01/11 03:17:26;;;;;;;65.47;30.40;;;2.10;99.90;;;;;;6178194;23;20166;-82
2022/01/11 03:19:53;;;;;;;66.90;30.47;;;2.10;99.90;;;;;;6179653;23;20206;-77
2022/01/11 03:22:20;;;;;;;68.77;31.27;;;2.00;99.90;;;;;;6178523;23;20178;-80
2022/01/11 03:24:47;;;;;;;78.43;32.70;;;2.10;99.90;;;;;;6177151;23;20178;-77
2022/01/11 03:27:14;;;;;;;80.97;32.13;;;2.00;99.90;;;;;;6177156;23;20662;-77
2022/01/11 03:29:43;;;;;;;82.97;34.07;;;2.00;99.90;;;;;;6176122;23;20174;-78
2022/01/11 03:32:12;;;;;;;78.83;33.73;;;2.00;99.90;;;;;;6176108;23;20178;-79
2022/01/11 03:34:41;;;;;;;79.57;33.00;;;2.00;99.90;;;;;;6176463;23;20170;-80
2022/01/11 03:37:10;;;;;;;85.47;34.90;;;2.10;99.90;;;;;;6177285;23;20179;-78
2022/01/11 03:39:37;;;;;;;80.53;34.63;;;2.10;99.90;;;;;;6174819;23;20178;-78
2022/01/11 03:42:04;;;;;;;78.93;32.70;;;2.00;99.90;;;;;;6176589;23;20167;-78
2022/01/11 03:44:31;;;;;;;81.20;33.17;;;2.10;99.90;;;;;;6174980;23;20201;-79
2022/01/11 03:46:59;;;;;;;89.17;34.33;;;2.10;99.90;;;;;;6176994;23;20200;-79
2022/01/11 03:49:26;;;;;;;84.40;34.43;;;2.10;99.90;;;;;;6176425;23;20611;-80
2022/01/11 03:51:53;;;;;;;91.60;34.97;;;2.10;99.90;;;;;;6175537;23;20716;-80
2022/01/11 03:54:25;;;;;;;95.27;35.43;;;2.10;99.90;;;;;;6176495;23;20284;-79
2022/01/11 03:56:53;;;;;;;87.97;34.53;;;2.10;99.90;;;;;;6175806;23;20490;-79
2022/01/11 03:59:20;;;;;;;87.67;35.47;;;2.10;99.90;;;;;;6176876;23;20174;-78
2022/01/11 04:01:47;;;;;;;92.40;36.60;;;2.10;99.90;;;;;;6175769;23;20178;-78
2022/01/11 04:04:16;;;;;;;97.70;37.60;;;2.10;99.90;;;;;;6176465;23;20186;-80
2022/01/11 04:06:43;;;;;;;86.57;37.37;;;2.20;99.90;;;;;;6177494;23;20171;-83
2022/01/11 04:09:11;;;;;;;86.67;35.80;;;2.10;99.90;;;;;;6178711;23;20221;-83
2022/01/11 04:11:38;;;;;;;84.53;32.70;;;2.10;99.90;;;;;;6177987;23;20510;-81
2022/01/11 04:14:05;;;;;;;95.93;38.13;;;2.20;99.90;;;;;;6179156;23;20166;-82
2022/01/11 04:16:32;;;;;;;84.50;34.60;;;2.20;99.90;;;;;;6179191;23;20174;-78
2022/01/11 04:18:58;;;;;;;83.83;34.03;;;2.20;99.90;;;;;;6178527;23;20174;-79
2022/01/11 04:21:27;;;;;;;92.87;35.63;;;2.20;99.90;;;;;;6177767;23;20167;-77
2022/01/11 04:23:54;;;;;;;92.50;38.37;;;2.20;99.90;;;;;;6178886;23;20171;-80
2022/01/11 04:26:21;;;;;;;86.80;34.70;;;2.20;99.90;;;;;;6175926;23;20286;-80
2022/01/11 04:28:48;;;;;;;89.83;35.87;;;2.20;99.90;;;;;;6174925;23;20191;-78
2022/01/11 04:31:15;;;;;;;93.17;35.97;;;2.20;99.90;;;;;;6176232;23;20170;-78
2022/01/11 04:33:43;;;;;;;105.20;38.23;;;2.20;99.90;;;;;;6175359;23;20175;-81
2022/01/11 04:36:12;;;;;;;89.07;37.67;;;2.20;99.90;;;;;;6176083;23;20181;-80
2022/01/11 04:38:40;;;;;;;97.07;38.63;;;2.20;99.90;;;;;;6176462;23;20175;-83
2022/01/11 04:41:07;;;;;;;92.50;39.10;;;2.30;99.90;;;;;;6177312;23;20182;-82
2022/01/11 04:43:34;;;;;;;86.23;36.70;;;2.20;99.90;;;;;;6178087;23;20179;-81
2022/01/11 04:46:01;;;;;;;94.53;38.80;;;2.20;99.90;;;;;;6179126;23;20436;-82
2022/01/11 04:48:32;;;;;;;92.43;37.13;;;2.20;99.90;;;;;;6177749;23;20555;-82
2022/01/11 04:50:59;;;;;;;100.20;41.10;;;2.30;99.90;;;;;;6177992;23;20572;-81
2022/01/11 04:53:26;;;;;;;96.17;39.13;;;2.30;99.90;;;;;;6177744;23;20174;-82
2022/01/11 04:55:54;;;;;;;104.73;40.53;;;2.20;99.90;;;;;;6177245;23;20171;-80
2022/01/11 04:58:21;;;;;;;93.70;37.50;;;2.20;99.90;;;;;;6176684;23;20269;-78
2022/01/11 05:00:48;;;;;;;93.27;37.83;;;2.20;99.90;;;;;;6178385;23;20174;-82
2022/01/11 05:03:15;;;;;;;96.87;38.27;;;2.20;99.90;;;;;;6177167;23;20186;-80
2022/01/11 05:05:42;;;;;;;91.17;37.07;;;2.20;99.90;;;;;;6175556;23;20432;-78
2022/01/11 05:08:09;;;;;;;95.03;36.47;;;2.20;99.90;;;;;;6177456;23;20214;-79
2022/01/11 05:10:42;;;;;;;93.37;37.77;;;2.20;99.90;;;;;;6175060;23;20181;-77
2022/01/11 05:13:10;;;;;;;89.67;37.37;;;2.20;99.90;;;;;;6176493;23;20241;-78
2022/01/11 05:15:37;;;;;;;89.73;37.33;;;2.20;99.90;;;;;;6176483;23;20453;-81
2022/01/11 05:18:04;;;;;;;95.13;39.70;;;2.20;99.90;;;;;;6175577;23;20182;-80
2022/01/11 05:20:31;;;;;;;91.77;39.00;;;2.30;99.90;;;;;;6176281;23;20200;-82
2022/01/11 05:22:58;;;;;;;101.33;38.33;;;2.20;99.90;;;;;;6176490;23;20171;-80
2022/01/11 05:25:25;;;;;;;93.20;38.13;;;2.20;99.90;;;;;;6175960;23;20175;-78
2022/01/11 05:27:51;;;;;;;92.27;38.27;;;2.20;99.90;;;;;;6176871;23;20174;-80
2022/01/11 05:30:20;;;;;;;101.20;39.30;;;2.20;99.90;;;;;;6177186;23;20189;-79
2022/01/11 05:32:48;;;;;;;90.00;36.90;;;2.20;99.90;;;;;;6178445;23;20178;-82
2022/01/11 05:35:17;;;;;;;88.57;36.23;;;2.20;99.90;;;;;;6178667;23;20167;-80
2022/01/11 05:37:44;;;;;;;83.40;35.50;;;2.20;99.90;;;;;;6177288;23;20174;-81
2022/01/11 05:40:13;;;;;;;83.43;36.00;;;2.30;99.90;;;;;;6177874;23;20483;-80
2022/01/11 05:42:40;;;;;;;82.50;37.47;;;2.30;99.90;;;;;;6177379;23;20211;-81
2022/01/11 05:45:08;;;;;;;87.20;35.63;;;2.30;99.90;;;;;;6176394;23;20229;-81
2022/01/11 05:47:37;;;;;;;81.43;35.77;;;2.30;99.90;;;;;;6177038;23;20624;-81
2022/01/11 05:50:06;;;;;;;74.47;34.03;;;2.30;99.90;;;;;;6177036;23;20206;-81
2022/01/11 05:52:34;;;;;;;75.27;34.47;;;2.20;99.90;;;;;;6176139;23;20222;-81
2022/01/11 05:55:01;;;;;;;85.47;36.00;;;2.20;99.90;;;;;;6178201;23;20179;-78
2022/01/11 05:57:28;;;;;;;78.80;34.10;;;2.20;99.90;;;;;;6176294;23;20182;-80
2022/01/11 05:59:55;;;;;;;77.43;35.47;;;2.20;99.90;;;;;;6176428;23;20178;-80
2022/01/11 06:02:22;;;;;;;80.13;35.93;;;2.20;99.90;;;;;;6176868;23;20179;-83
2022/01/11 06:04:50;;;;;;;80.20;35.57;;;2.20;99.90;;;;;;6177564;23;20563;-79
2022/01/11 06:07:17;;;;;;;69.83;33.47;;;2.20;99.90;;;;;;6176134;23;20179;-82
2022/01/11 06:09:44;;;;;;;80.03;35.80;;;2.20;99.90;;;;;;6177359;23;20199;-80
2022/01/11 06:12:11;;;;;;;73.93;33.37;;;2.20;99.90;;;;;;6175184;23;20182;-80
2022/01/11 06:14:37;;;;;;;76.30;34.23;;;2.20;99.90;;;;;;6179030;23;20856;-81
2022/01/11 06:17:04;;;;;;;77.33;35.73;;;2.20;99.90;;;;;;6179290;23;20658;-83
2022/01/11 06:19:34;;;;;;;75.17;33.33;;;2.20;99.90;;;;;;6179656;23;20175;-79
2022/01/11 06:22:02;;;;;;;78.87;34.47;;;2.20;99.90;;;;;;6179064;23;20262;-79
2022/01/11 06:24:29;;;;;;;82.10;35.17;;;2.20;99.90;;;;;;6179226;23;20171;-82
2022/01/11 06:26:56;;;;;;;71.77;33.60;;;2.20;99.90;;;;;;6177273;23;20171;-78
2022/01/11 06:29:23;;;;;;;75.97;34.87;;;2.20;99.90;;;;;;6178172;23;20194;-81
2022/01/11 06:31:50;;;;;;;69.23;33.53;;;2.20;99.90;;;;;;6178520;23;20175;-78
2022/01/11 06:34:17;;;;;;;79.67;35.17;;;2.20;99.90;;;;;;6177991;23;20190;-79
2022/01/11 06:36:44;;;;;;;78.00;34.63;;;2.30;99.90;;;;;;6178946;23;20175;-82
2022/01/11 06:39:12;;;;;;;75.67;33.63;;;2.20;99.90;;;;;;6177707;23;20182;-81
2022/01/11 06:41:39;;;;;;;75.03;33.73;;;2.20;99.90;;;;;;6178168;23;20181;-82
2022/01/11 06:44:06;;;;;;;76.10;36.00;;;2.30;99.90;;;;;;6179732;23;20225;-82
2022/01/11 06:46:33;;;;;;;79.70;35.83;;;2.30;99.90;;;;;;6177690;23;20177;-80
2022/01/11 06:49:01;;;;;;;80.27;34.83;;;2.30;99.90;;;;;;6177290;23;20241;-79
2022/01/11 06:51:28;;;;;;;87.33;37.37;;;2.30;99.90;;;;;;6177115;23;20178;-80
2022/01/11 06:53:54;;;;;;;89.73;38.07;;;2.30;99.90;;;;;;6178065;23;20171;-78
2022/01/11 06:56:24;;;;;;;83.67;37.43;;;2.30;99.90;;;;;;6178021;23;20186;-82
2022/01/11 06:58:51;;;;;;;85.53;37.40;;;2.30;99.90;;;;;;6177787;23;20393;-78
2022/01/11 07:01:18;;;;;;;85.07;38.40;;;2.30;99.90;;;;;;6178386;23;20275;-78
2022/01/11 07:03:45;;;;;;;92.43;37.40;;;2.30;99.90;;;;;;6177269;23;20555;-80
2022/01/11 07:06:12;;;;;;;91.70;37.63;;;2.30;99.90;;;;;;6179132;23;20187;-79
2022/01/11 07:08:39;;;;;;;86.80;38.83;;;2.30;99.90;;;;;;6178135;23;20194;-82
2022/01/11 07:11:05;;;;;;;86.70;36.60;;;2.30;99.90;;;;;;6178124;23;20185;-82
2022/01/11 07:13:34;;;;;;;83.83;36.60;;;2.30;99.90;;;;;;6178345;23;20174;-79
2022/01/11 07:16:00;;;;;;;84.50;35.40;;;2.40;99.90;;;;;;6177114;23;20179;-82
2022/01/11 07:18:27;;;;;;;82.57;35.60;;;2.40;99.90;;;;;;6178124;23;20190;-81
2022/01/11 07:20:54;;;;;;;77.30;36.03;;;2.30;99.90;;;;;;6177305;23;20175;-78
2022/01/11 07:23:21;;;;;;;76.07;34.97;;;2.30;99.90;;;;;;6176571;23;20201;-77
2022/01/11 07:25:47;;;;;;;76.90;34.67;;;2.30;99.90;;;;;;6177598;23;20579;-80
2022/01/11 07:28:15;;;;;;;73.73;35.27;;;2.30;99.90;;;;;;6177285;23;20175;-81
2022/01/11 07:30:44;;;;;;;76.57;34.93;;;2.30;99.90;;;;;;6177034;23;20174;-79
2022/01/11 07:33:11;;;;;;;72.00;32.97;;;2.30;99.90;;;;;;6177794;23;20174;-78
2022/01/11 07:35:37;;;;;;;74.07;34.33;;;2.30;99.90;;;;;;6177148;23;20178;-80
2022/01/11 07:38:04;;;;;;;75.17;35.47;;;2.30;99.90;;;;;;6177869;23;20197;-77
2022/01/11 07:40:31;;;;;;;68.20;32.20;;;2.30;99.90;;;;;;6177573;23;20634;-79
2022/01/11 07:42:58;;;;;;;70.90;32.23;;;2.30;99.90;;;;;;6175833;23;20183;-78
2022/01/11 07:45:25;;;;;;;64.97;30.70;;;2.30;99.90;;;;;;6175376;23;20206;-80
2022/01/11 07:47:53;;;;;;;66.40;32.00;;;2.30;99.90;;;;;;6177660;23;20387;-79
2022/01/11 07:50:20;;;;;;;67.20;31.70;;;2.30;99.90;;;;;;6176412;23;20214;-81
2022/01/11 07:52:48;;;;;;;72.83;33.17;;;2.30;99.90;;;;;;6176576;23;20178;-80
2022/01/11 07:55:15;;;;;;;66.73;31.90;;;2.30;99.90;;;;;;6176473;23;20554;-80
2022/01/11 07:57:42;;;;;;;66.67;32.30;;;2.20;99.90;;;;;;6176526;23;20170;-80
2022/01/11 08:00:09;;;;;;;67.03;31.83;;;2.30;99.90;;;;;;6177053;23;20171;-79
2022/01/11 08:02:36;;;;;;;66.30;32.70;;;2.20;99.90;;;;;;6176926;23;20185;-80
2022/01/11 08:05:05;;;;;;;61.07;30.37;;;2.20;99.90;;;;;;6176028;23;20179;-80
2022/01/11 08:07:32;;;;;;;61.03;31.03;;;2.20;99.90;;;;;;6177676;23;20751;-80
2022/01/11 08:09:59;;;;;;;58.50;30.00;;;2.10;99.90;;;;;;6176955;23;20191;-81
2022/01/11 08:12:26;;;;;;;65.27;30.27;;;2.20;99.90;;;;;;6176542;23;20182;-75
2022/01/11 08:14:53;;;;;;;58.33;30.67;;;2.10;99.90;;;;;;6177929;23;20166;-80
2022/01/11 08:17:20;;;;;;;65.97;30.43;;;2.10;99.90;;;;;;6177956;23;20182;-79
2022/01/11 08:19:47;;;;;;;59.13;28.97;;;2.10;99.90;;;;;;6176426;23;20175;-80
2022/01/11 08:22:19;;;;;;;58.53;28.80;;;2.10;99.90;;;;;;6148924;23;20316;-79
2022/01/11 08:24:46;;;;;;;53.27;28.17;;;2.10;99.90;;;;;;6177427;23;20178;-79
2022/01/11 08:27:14;;;;;;;53.50;28.67;;;2.10;99.90;;;;;;6177093;23;20178;-81
2022/01/11 08:29:42;;;;;;;56.83;28.10;;;2.10;99.90;;;;;;6177430;23;20198;-79
2022/01/11 08:32:09;;;;;;;49.47;27.77;;;2.10;99.90;;;;;;6177323;23;20190;-78
2022/01/11 08:34:36;;;;;;;56.10;28.67;;;2.00;99.90;;;;;;6177011;23;20442;-79
2022/01/11 08:37:04;;;;;;;51.97;27.87;;;2.00;99.90;;;;;;6171368;23;20182;-81
2022/01/11 08:39:32;;;;;;;53.00;26.40;;;2.00;99.90;;;;;;6176374;23;20603;-80
2022/01/11 08:41:59;;;;;;;51.20;26.60;;;2.00;99.90;;;;;;6176308;23;20189;-82
2022/01/11 08:44:26;;;;;;;50.63;27.40;;;2.00;99.90;;;;;;6177631;23;20209;-82
2022/01/11 08:46:54;;;;;;;55.60;26.33;;;2.00;99.90;;;;;;6176479;23;20191;-79
2022/01/11 08:49:21;;;;;;;50.67;25.17;;;2.00;99.90;;;;;;6175970;23;20205;-80
2022/01/11 08:51:48;;;;;;;47.47;25.90;;;2.00;99.90;;;;;;6176653;23;20187;-78
2022/01/11 08:54:15;;;;;;;50.93;26.20;;;1.90;99.90;;;;;;6175416;23;20571;-79
2022/01/11 08:56:43;;;;;;;48.00;24.90;;;1.90;99.90;;;;;;6177656;23;20588;-82
2022/01/11 08:59:12;;;;;;;48.67;25.47;;;1.90;99.90;;;;;;6178335;23;20174;-82
2022/01/11 09:01:39;;;;;;;45.37;23.27;;;1.90;99.90;;;;;;6177134;23;20820;-81
2022/01/11 09:04:06;;;;;;;46.00;24.80;;;1.90;99.90;;;;;;6178615;23;20194;-79
2022/01/11 09:06:32;;;;;;;45.57;24.07;;;1.90;99.90;;;;;;6177791;23;20188;-79
2022/01/11 09:08:59;;;;;;;47.83;24.47;;;1.90;99.90;;;;;;6178340;23;20449;-81
2022/01/11 09:11:26;;;;;;;45.70;24.63;;;1.90;99.90;;;;;;6177909;23;20175;-80
2022/01/11 09:13:54;;;;;;;41.00;23.87;;;1.90;99.90;;;;;;6179373;23;20171;-81
2022/01/11 09:16:23;;;;;;;45.20;24.27;;;1.90;99.90;;;;;;6175693;23;20186;-81
2022/01/11 09:18:50;;;;;;;44.27;22.33;;;1.90;99.90;;;;;;6179149;23;20178;-82
2022/01/11 09:21:16;;;;;;;43.77;23.53;;;1.90;99.90;;;;;;6179853;23;20174;-83
2022/01/11 09:23:43;;;;;;;43.93;23.77;;;1.90;99.90;;;;;;6178944;23;20185;-80
2022/01/11 09:26:10;;;;;;;40.10;22.80;;;1.90;99.90;;;;;;6179585;23;20180;-80
2022/01/11 09:28:37;;;;;;;40.30;22.50;;;2.00;99.90;;;;;;6178599;23;20265;-81
2022/01/11 09:31:05;;;;;;;42.40;23.23;;;2.00;99.90;;;;;;6178554;23;20205;-84
2022/01/11 09:33:33;;;;;;;40.03;22.27;;;2.00;99.90;;;;;;6179604;23;20175;-84
2022/01/11 09:36:00;;;;;;;36.03;21.40;;;2.00;99.90;;;;;;6177552;23;20175;-83
2022/01/11 09:38:28;;;;;;;43.00;23.30;;;2.10;99.90;;;;;;6179486;23;20182;-83
2022/01/11 09:40:57;;;;;;;42.67;22.20;;;2.10;99.90;;;;;;6180252;23;20186;-82
2022/01/11 09:43:25;;;;;;;42.63;22.17;;;2.20;99.90;;;;;;6179113;23;20195;-83
2022/01/11 09:45:53;;;;;;;43.37;21.93;;;2.20;99.90;;;;;;6179286;23;20183;-85
2022/01/11 09:48:23;;;;;;;42.50;22.07;;;2.20;99.90;;;;;;6179246;23;20179;-84
2022/01/11 09:50:51;;;;;;;42.47;23.07;;;2.20;99.90;;;;;;6178314;23;20202;-84
2022/01/11 09:53:18;;;;;;;40.67;21.43;;;2.30;99.90;;;;;;6180935;23;20836;-85
2022/01/11 09:55:45;;;;;;;35.23;21.53;;;2.30;99.90;;;;;;6181225;23;20221;-82
2022/01/11 09:58:14;;;;;;;36.60;21.23;;;2.40;99.90;;;;;;6180789;23;20186;-84
2022/01/11 10:00:42;;;;;;;38.67;19.77;;;2.40;99.90;;;;;;6181037;23;20178;-84
2022/01/11 10:03:09;;;;;;;38.73;21.60;;;2.40;99.90;;;;;;6181454;23;20489;-82
2022/01/11 10:05:38;;;;;;;33.43;19.87;;;2.40;99.90;;;;;;6179960;23;20183;-86
2022/01/11 10:08:20;;;;;;;33.07;19.53;;;2.50;99.90;;;;;;6181263;23;20194;-83
2022/01/11 10:10:48;;;;;;;34.00;20.13;;;2.50;99.90;;;;;;6180180;23;20603;-83
2022/01/11 10:13:29;;;;;;;32.60;19.43;;;2.50;99.90;;;;;;6179673;23;20179;-82
2022/01/11 10:15:56;;;;;;;34.70;19.83;;;2.60;99.90;;;;;;6178624;23;20187;-79
2022/01/11 10:18:36;;;;;;;32.40;18.87;;;2.70;99.90;;;;;;6178385;23;20492;-80
2022/01/11 10:21:21;;;;;;;31.13;18.17;;;2.70;99.90;;;;;;6178538;23;20186;-81
2022/01/11 10:23:48;;;;;;;30.40;18.40;;;2.70;99.90;;;;;;6178086;23;20821;-81
2022/01/11 10:26:14;;;;;;;30.63;19.10;;;2.80;99.90;;;;;;6179110;23;20777;-79
2022/01/11 10:28:41;;;;;;;32.33;17.77;;;2.90;99.90;;;;;;6178328;23;20183;-82
2022/01/11 10:31:08;;;;;;;31.63;18.87;;;2.90;99.90;;;;;;6179244;23;20198;-81
2022/01/11 10:33:35;;;;;;;33.43;17.37;;;3.00;99.90;;;;;;6178275;23;20563;-81
2022/01/11 10:36:03;;;;;;;30.47;17.63;;;3.10;99.90;;;;;;6179740;23;20190;-81
2022/01/11 10:38:31;;;;;;;33.57;18.77;;;3.20;99.90;;;;;;6178601;23;20175;-79
2022/01/11 10:40:58;;;;;;;30.03;17.83;;;3.40;99.90;;;;;;6178235;23;20749;-82
2022/01/11 10:43:25;;;;;;;29.77;17.23;;;3.50;99.90;;;;;;6177402;23;20546;-81
2022/01/11 10:45:54;;;;;;;32.13;17.57;;;3.60;99.90;;;;;;6179101;23;20186;-80
2022/01/11 10:48:24;;;;;;;32.97;18.60;;;3.80;99.90;;;;;;6177406;23;20197;-83
2022/01/11 10:50:53;;;;;;;24.07;15.70;;;3.90;99.90;;;;;;6180836;23;20525;-82
2022/01/11 10:53:24;;;;;;;27.03;16.27;;;4.00;99.90;;;;;;6179969;23;20293;-82
2022/01/11 10:55:54;;;;;;;27.07;16.70;;;4.10;99.90;;;;;;6180007;23;20194;-87
2022/01/11 10:58:22;;;;;;;22.17;15.43;;;4.20;99.90;;;;;;6178959;23;20451;-82
2022/01/11 11:00:51;;;;;;;24.10;15.20;;;4.30;99.90;;;;;;6179856;23;20171;-87
2022/01/11 11:03:20;;;;;;;25.00;15.10;;;4.30;99.90;;;;;;6180415;23;20225;-81
2022/01/11 11:05:48;;;;;;;26.37;15.20;;;4.40;99.90;;;;;;6180049;23;20174;-84
2022/01/11 11:08:17;;;;;;;25.97;15.00;;;4.50;99.90;;;;;;6180047;23;20175;-87
2022/01/11 11:10:49;;;;;;;25.77;15.37;;;4.50;99.90;;;;;;6180797;23;20195;-83
2022/01/11 11:13:22;;;;;;;21.70;13.70;;;4.60;99.90;;;;;;6179268;23;20178;-82
2022/01/11 11:15:51;;;;;;;23.07;14.20;;;4.60;99.90;;;;;;6180191;23;20544;-86
2022/01/11 11:18:27;;;;;;;26.03;15.30;;;4.70;99.90;;;;;;6180429;23;20241;-86
2022/01/11 11:20:55;;;;;;;20.17;13.07;;;4.70;99.90;;;;;;6180804;23;20509;-85
2022/01/11 11:23:22;;;;;;;22.97;14.63;;;4.70;99.90;;;;;;6179208;23;20174;-88
2022/01/11 11:25:50;;;;;;;22.40;14.57;;;4.80;99.90;;;;;;6180421;23;20181;-86
2022/01/11 11:28:20;;;;;;;22.60;15.23;;;4.80;99.90;;;;;;6180149;23;20459;-86
2022/01/11 11:30:50;;;;;;;21.63;13.60;;;4.90;99.90;;;;;;6178518;23;20203;-83
2022/01/11 11:33:18;;;;;;;21.23;13.73;;;4.90;99.90;;;;;;6179822;23;20175;-79
2022/01/11 11:35:47;;;;;;;21.30;13.73;;;4.90;99.90;;;;;;6178387;23;20175;-83
2022/01/11 11:38:14;;;;;;;22.13;13.17;;;5.00;99.90;;;;;;6178657;23;20698;-82
2022/01/11 11:40:42;;;;;;;18.43;12.73;;;5.00;99.90;;;;;;6178699;23;20201;-82
2022/01/11 11:43:12;;;;;;;18.73;11.87;;;5.00;99.90;;;;;;6178369;23;20564;-81
2022/01/11 11:45:41;;;;;;;19.40;13.93;;;5.00;99.90;;;;;;6179487;23;20174;-80
2022/01/11 11:48:09;;;;;;;20.50;13.73;;;5.10;99.90;;;;;;6178314;23;20178;-84
2022/01/11 11:50:48;;;;;;;21.53;13.10;;;5.10;99.90;;;;;;6177911;23;20209;-84
2022/01/11 11:53:22;;;;;;;20.33;13.27;;;5.10;99.90;;;;;;6178158;23;20178;-80
2022/01/11 11:55:49;;;;;;;21.07;12.90;;;5.10;99.90;;;;;;6178901;23;20235;-82
2022/01/11 11:58:22;;;;;;;18.40;13.17;;;5.10;99.90;;;;;;6178693;23;20186;-81
2022/01/11 12:00:51;;;;;;;21.00;13.80;;;5.10;99.90;;;;;;6178234;23;20182;-80
2022/01/11 12:03:22;;;;;;;18.47;12.50;;;5.20;99.90;;;;;;6178749;23;20794;-84
2022/01/11 12:05:50;;;;;;;26.43;14.40;;;5.20;99.90;;;;;;6178866;23;20175;-83
2022/01/11 12:08:31;;;;;;;19.80;13.13;;;5.30;99.90;;;;;;6178171;23;20893;-85
2022/01/11 12:11:00;;;;;;;20.90;13.47;;;5.30;99.90;;;;;;6177375;23;20190;-80
2022/01/11 12:13:46;;;;;;;21.03;12.53;;;5.30;99.90;;;;;;6176885;23;20192;-81
2022/01/11 12:16:39;;;;;;;20.70;12.77;;;5.40;99.90;;;;;;6178616;23;20165;-84
2022/01/11 12:19:09;;;;;;;21.30;12.93;;;5.40;99.90;;;;;;6177362;23;20265;-81
2022/01/11 12:21:43;;;;;;;22.93;13.60;;;5.50;99.90;;;;;;6177251;23;20221;-81
2022/01/11 12:24:10;;;;;;;23.73;13.23;;;5.60;99.90;;;;;;6176740;23;20173;-84
2022/01/11 12:26:38;;;;;;;18.33;12.60;;;5.60;99.90;;;;;;6178261;23;20167;-85
2022/01/11 12:29:26;;;;;;;18.70;12.97;;;5.60;99.90;;;;;;6179407;23;20175;-85
2022/01/11 12:31:59;;;;;;;22.27;14.60;;;5.70;99.90;;;;;;6178725;23;20195;-84
2022/01/11 12:34:54;;;;;;;18.80;13.13;;;5.80;99.90;;;;;;6179725;23;20170;-86
2022/01/11 12:37:27;;;;;;;19.83;11.93;;;5.90;99.90;;;;;;6176798;23;20178;-85
2022/01/11 12:40:06;;;;;;;24.27;13.97;;;5.90;99.90;;;;;;6179922;23;20834;-81
2022/01/11 12:42:34;;;;;;;17.87;12.30;;;5.90;99.90;;;;;;6179710;23;20170;-82